createdAt,value
2019-01-24T00:00:51.849Z,3.40
2019-01-24T00:03:46.147Z,3.30
2019-01-24T00:06:46.929Z,3.33
2019-01-24T00:09:47.327Z,3.27
2019-01-24T00:12:41.389Z,3.17
2019-01-24T00:15:35.446Z,3.73
2019-01-24T00:18:36.333Z,3.60
2019-01-24T00:21:43.007Z,3.27
2019-01-24T00:24:44.098Z,3.43
2019-01-24T00:27:37.770Z,3.43
2019-01-24T00:30:40.344Z,3.50
2019-01-24T00:33:33.971Z,3.70
2019-01-24T00:36:35.624Z,3.40
2019-01-24T00:39:30.265Z,3.30
2019-01-24T00:42:31.479Z,3.60
2019-01-24T00:45:26.040Z,3.97
2019-01-24T00:48:27.278Z,3.70
2019-01-24T00:51:21.514Z,3.30
2019-01-24T00:54:22.965Z,3.43
2019-01-24T00:57:17.282Z,3.60
2019-01-24T01:00:22.741Z,3.40
2019-01-24T01:03:16.160Z,3.30
2019-01-24T01:06:17.698Z,3.47
2019-01-24T01:09:12.843Z,3.40
2019-01-24T01:12:13.601Z,3.63
2019-01-24T01:15:07.040Z,3.30
2019-01-24T01:18:07.541Z,3.17
2019-01-24T01:21:01.186Z,3.90
2019-01-24T01:24:01.724Z,3.57
2019-01-24T01:26:56.311Z,3.50
2019-01-24T01:29:57.518Z,3.83
2019-01-24T01:32:52.046Z,3.70
2019-01-24T01:35:53.652Z,3.60
2019-01-24T01:38:47.770Z,3.80
2019-01-24T01:41:49.239Z,3.87
2019-01-24T01:44:43.144Z,3.60
2019-01-24T01:47:44.118Z,3.63
2019-01-24T01:50:37.776Z,3.23
2019-01-24T01:53:38.607Z,4.03
2019-01-24T01:56:33.080Z,3.90
2019-01-24T01:59:33.554Z,3.80
2019-01-24T02:02:29.770Z,3.50
2019-01-24T02:05:31.018Z,3.60
2019-01-24T02:08:26.358Z,3.60
2019-01-24T02:11:26.874Z,3.67
2019-01-24T02:14:36.254Z,3.53
2019-01-24T02:17:37.318Z,3.67
2019-01-24T02:20:30.718Z,3.80
2019-01-24T02:23:31.443Z,3.30
2019-01-24T02:26:24.941Z,3.90
2019-01-24T02:29:26.702Z,3.80
2019-01-24T02:32:19.880Z,3.80
2019-01-24T02:35:21.264Z,3.60
2019-01-24T02:38:15.484Z,3.90
2019-01-24T02:41:16.527Z,3.83
2019-01-24T02:44:10.313Z,3.70
2019-01-24T02:47:10.628Z,3.53
2019-01-24T02:50:04.548Z,3.80
2019-01-24T02:53:08.852Z,3.70
2019-01-24T02:56:02.802Z,3.90
2019-01-24T02:59:04.522Z,3.60
2019-01-24T03:01:58.548Z,4.00
2019-01-24T03:04:59.358Z,3.67
2019-01-24T03:07:53.707Z,3.67
2019-01-24T03:10:55.540Z,4.03
2019-01-24T03:13:49.207Z,3.50
2019-01-24T03:16:50.035Z,3.30
2019-01-24T03:19:43.800Z,3.60
2019-01-24T03:22:45.185Z,3.33
2019-01-24T03:25:41.671Z,3.83
2019-01-24T03:28:42.300Z,3.80
2019-01-24T03:31:36.059Z,3.60
2019-01-24T03:34:38.292Z,3.97
2019-01-24T03:37:32.868Z,3.33
2019-01-24T03:40:33.831Z,3.83
2019-01-24T03:43:28.442Z,3.67
2019-01-24T03:46:29.794Z,4.00
2019-01-24T03:49:23.567Z,3.60
2019-01-24T03:52:25.225Z,3.80
2019-01-24T03:55:20.298Z,3.40
2019-01-24T03:58:21.557Z,3.60
2019-01-24T04:01:15.763Z,3.43
2019-01-24T04:04:16.497Z,4.50
2019-01-24T04:07:10.097Z,3.80
2019-01-24T04:10:13.092Z,4.20
2019-01-24T04:13:07.012Z,3.50
2019-01-24T04:16:07.982Z,3.77
2019-01-24T04:19:08.742Z,3.70
2019-01-24T04:22:02.663Z,4.00
2019-01-24T04:24:56.619Z,3.70
2019-01-24T04:27:56.765Z,3.90
2019-01-24T04:31:03.898Z,3.80
2019-01-24T04:34:04.837Z,3.70
2019-01-24T04:36:59.054Z,3.73
2019-01-24T04:39:59.948Z,3.70
2019-01-24T04:42:54.586Z,3.40
2019-01-24T04:45:55.558Z,3.63
2019-01-24T04:48:49.919Z,4.07
2019-01-24T04:51:50.605Z,4.00
2019-01-24T04:54:44.824Z,3.80
2019-01-24T04:57:48.332Z,3.50
2019-01-24T05:00:42.994Z,3.80
2019-01-24T05:03:44.648Z,3.90
2019-01-24T05:06:39.163Z,3.67
2019-01-24T05:09:39.970Z,4.07
2019-01-24T05:12:33.439Z,3.80
2019-01-24T05:15:35.143Z,3.90
2019-01-24T05:18:29.293Z,3.90
2019-01-24T05:21:30.671Z,3.77
2019-01-24T05:24:25.260Z,3.57
2019-01-24T05:27:27.021Z,4.17
2019-01-24T05:30:22.776Z,4.10
2019-01-24T05:33:24.876Z,3.73
2019-01-24T05:36:22.390Z,4.40
2019-01-24T05:39:23.761Z,3.50
2019-01-24T05:42:21.342Z,4.00
2019-01-24T05:45:22.395Z,4.03
2019-01-24T05:48:16.830Z,3.90
2019-01-24T05:51:17.723Z,3.73
2019-01-24T05:54:11.344Z,4.07
2019-01-24T05:57:12.671Z,3.87
2019-01-24T06:00:07.247Z,3.90
2019-01-24T06:03:11.773Z,4.10
2019-01-24T06:06:05.497Z,3.77
2019-01-24T06:09:06.481Z,4.10
2019-01-24T06:12:00.839Z,4.00
2019-01-24T06:15:02.212Z,4.27
2019-01-24T06:17:56.791Z,3.80
2019-01-24T06:20:58.217Z,3.73
2019-01-24T06:23:58.695Z,3.87
2019-01-24T06:26:52.870Z,3.63
2019-01-24T06:29:46.859Z,4.03
2019-01-24T06:32:47.915Z,3.63
2019-01-24T06:35:55.192Z,3.90
2019-01-24T06:38:58.327Z,3.77
2019-01-24T06:41:52.446Z,3.80
2019-01-24T06:44:53.553Z,3.70
2019-01-24T06:47:47.251Z,3.57
2019-01-24T06:50:58.049Z,3.60
2019-01-24T06:53:52.106Z,3.40
2019-01-24T06:56:53.618Z,3.70
2019-01-24T07:00:00.844Z,3.50
2019-01-24T07:03:02.160Z,3.43
2019-01-24T07:05:59.403Z,3.37
2019-01-24T07:09:00.759Z,3.60
2019-01-24T07:11:56.349Z,3.17
2019-01-24T07:14:57.593Z,3.43
2019-01-24T07:17:51.113Z,3.20
2019-01-24T07:20:52.879Z,3.13
2019-01-24T07:23:47.448Z,3.50
2019-01-24T07:26:50.736Z,3.50
2019-01-24T07:29:45.168Z,3.50
2019-01-24T07:35:42.673Z,3.23
2019-01-24T07:38:44.105Z,3.50
2019-01-24T07:41:38.336Z,3.40
2019-01-24T07:44:42.146Z,3.00
2019-01-24T07:47:36.750Z,3.20
2019-01-24T07:50:37.105Z,3.57
2019-01-24T07:53:31.206Z,3.10
2019-01-24T07:56:32.506Z,3.40
2019-01-24T07:59:25.906Z,3.23
2019-01-24T08:02:27.467Z,3.10
2019-01-24T08:05:21.630Z,3.43
2019-01-24T08:08:23.313Z,3.27
2019-01-24T08:11:17.077Z,3.50
2019-01-24T08:14:17.831Z,3.23
2019-01-24T08:17:14.507Z,3.40
2019-01-24T08:20:16.678Z,3.50
2019-01-24T08:23:10.692Z,3.10
2019-01-24T08:26:12.000Z,3.70
2019-01-24T08:29:12.590Z,3.57
2019-01-24T08:32:08.178Z,3.43
2019-01-24T08:35:02.305Z,3.40
2019-01-24T08:38:02.246Z,3.10
2019-01-24T08:41:09.445Z,3.00
2019-01-24T08:44:10.758Z,3.43
2019-01-24T08:47:05.996Z,2.90
2019-01-24T08:50:06.940Z,3.50
2019-01-24T08:53:01.027Z,3.53
2019-01-24T08:56:01.721Z,3.00
2019-01-24T08:58:56.164Z,3.10
2019-01-24T09:01:57.679Z,3.43
2019-01-24T09:04:51.621Z,3.17
2019-01-24T09:07:52.814Z,3.37
2019-01-24T09:10:47.579Z,3.30
2019-01-24T09:13:48.060Z,3.23
2019-01-24T09:16:42.317Z,3.40
2019-01-24T09:19:44.311Z,3.30
2019-01-24T09:22:37.738Z,3.90
2019-01-24T09:25:39.006Z,3.10
2019-01-24T09:28:34.837Z,3.10
2019-01-24T09:31:36.878Z,3.30
2019-01-24T09:34:31.203Z,2.93
2019-01-24T09:37:33.051Z,3.37
2019-01-24T09:40:30.704Z,3.20
2019-01-24T09:43:32.117Z,3.40
2019-01-24T09:46:25.718Z,3.13
2019-01-24T09:49:26.371Z,3.10
2019-01-24T09:52:20.892Z,3.50
2019-01-24T09:55:23.985Z,3.30
2019-01-24T09:58:17.440Z,3.40
2019-01-24T10:01:23.915Z,3.33
2019-01-24T10:04:24.147Z,3.10
2019-01-24T10:07:17.595Z,2.97
2019-01-24T10:10:13.139Z,3.03
2019-01-24T10:13:13.209Z,3.50
2019-01-24T10:16:06.915Z,3.63
2019-01-24T10:19:07.007Z,3.80
2019-01-24T10:22:14.515Z,3.17
2019-01-24T10:25:19.254Z,3.50
2019-01-24T10:28:13.785Z,3.50
2019-01-24T10:31:15.234Z,3.60
2019-01-24T10:34:23.722Z,3.07
2019-01-24T10:37:25.359Z,3.00
2019-01-24T10:40:24.915Z,2.90
2019-01-24T10:43:26.492Z,3.27
2019-01-24T10:46:20.773Z,3.10
2019-01-24T10:49:22.069Z,3.40
2019-01-24T10:52:16.294Z,3.33
2019-01-24T10:55:19.259Z,3.37
2019-01-24T10:58:13.301Z,3.37
2019-01-24T11:01:14.935Z,3.50
2019-01-24T11:04:09.361Z,3.10
2019-01-24T11:07:09.744Z,3.30
2019-01-24T11:10:04.351Z,3.57
2019-01-24T11:13:05.233Z,3.30
2019-01-24T11:15:59.103Z,3.50
2019-01-24T11:19:00.588Z,3.23
2019-01-24T11:21:55.164Z,3.43
2019-01-24T11:24:56.609Z,3.33
2019-01-24T11:27:50.565Z,3.63
2019-01-24T11:30:52.335Z,3.37
2019-01-24T11:33:46.096Z,3.33
2019-01-24T11:36:47.431Z,3.60
2019-01-24T11:39:42.205Z,3.37
2019-01-24T11:42:43.269Z,2.60
2019-01-24T11:45:38.828Z,3.30
2019-01-24T11:48:39.585Z,3.33
2019-01-24T11:51:33.209Z,3.40
2019-01-24T11:54:34.167Z,3.40
2019-01-24T11:57:28.759Z,4.10
2019-01-24T12:00:38.847Z,3.40
2019-01-24T12:03:33.288Z,3.27
2019-01-24T12:06:35.012Z,3.53
2019-01-24T12:09:28.749Z,3.30
2019-01-24T12:12:30.198Z,3.30
2019-01-24T12:15:26.042Z,3.30
2019-01-24T12:18:26.791Z,3.13
2019-01-24T12:21:20.412Z,3.20
2019-01-24T12:24:22.202Z,3.07
2019-01-24T12:27:16.443Z,3.40
2019-01-24T12:30:18.644Z,2.90
2019-01-24T12:33:12.878Z,3.60
2019-01-24T12:36:13.374Z,3.30
2019-01-24T12:39:15.008Z,3.27
2019-01-24T12:42:09.374Z,2.90
2019-01-24T12:45:05.708Z,3.30
2019-01-24T12:48:06.365Z,3.30
2019-01-24T12:51:13.495Z,3.30
2019-01-24T12:54:14.799Z,3.70
2019-01-24T12:57:08.385Z,3.43
2019-01-24T13:00:09.741Z,3.57
2019-01-24T13:03:04.234Z,3.63
2019-01-24T13:06:04.809Z,3.50
2019-01-24T13:08:59.444Z,3.80
2019-01-24T13:12:01.916Z,3.27
2019-01-24T13:14:56.416Z,3.40
2019-01-24T13:17:57.207Z,3.17
2019-01-24T13:20:51.140Z,3.27
2019-01-24T13:23:52.353Z,3.13
2019-01-24T13:26:46.681Z,3.30
2019-01-24T13:29:51.188Z,3.33
2019-01-24T13:32:44.906Z,3.00
2019-01-24T13:35:45.965Z,3.33
2019-01-24T13:38:43.968Z,3.27
2019-01-24T13:41:44.950Z,3.17
2019-01-24T13:44:39.608Z,3.40
2019-01-24T13:47:40.760Z,2.93
2019-01-24T13:50:34.088Z,3.00
2019-01-24T13:53:34.608Z,3.23
2019-01-24T13:56:29.798Z,3.53
2019-01-24T13:59:31.390Z,3.03
2019-01-24T14:02:26.571Z,3.03
2019-01-24T14:05:28.248Z,3.33
2019-01-24T14:08:22.040Z,3.30
2019-01-24T14:11:23.474Z,3.50
2019-01-24T14:14:17.249Z,3.50
2019-01-24T14:17:18.042Z,2.90
2019-01-24T14:20:13.972Z,3.20
2019-01-24T14:23:14.822Z,3.60
2019-01-24T14:26:09.323Z,3.10
2019-01-24T14:29:10.883Z,3.43
2019-01-24T14:32:04.512Z,3.23
2019-01-24T14:35:06.171Z,3.57
2019-01-24T14:38:00.527Z,2.90
2019-01-24T14:41:01.338Z,3.10
2019-01-24T14:44:01.824Z,3.20
2019-01-24T14:46:55.990Z,3.00
2019-01-24T14:49:49.649Z,3.30
2019-01-24T14:52:49.978Z,2.80
2019-01-24T14:55:57.787Z,3.13
2019-01-24T14:58:58.362Z,3.10
2019-01-24T15:01:52.658Z,2.90
2019-01-24T15:04:54.527Z,3.20
2019-01-24T15:07:48.074Z,3.17
2019-01-24T15:10:49.401Z,3.40
2019-01-24T15:13:44.011Z,3.33
2019-01-24T15:16:44.925Z,3.20
2019-01-24T15:19:39.042Z,3.10
2019-01-24T15:22:40.671Z,3.17
2019-01-24T15:25:34.897Z,3.20
2019-01-24T15:28:37.306Z,3.40
2019-01-24T15:31:31.403Z,3.20
2019-01-24T15:34:32.739Z,3.00
2019-01-24T15:37:27.797Z,3.40
2019-01-24T15:40:33.226Z,3.23
2019-01-24T15:43:27.416Z,3.03
2019-01-24T15:46:28.417Z,3.13
2019-01-24T15:49:22.331Z,2.90
2019-01-24T15:52:23.086Z,3.40
2019-01-24T15:55:17.600Z,3.10
2019-01-24T15:58:18.603Z,3.43
2019-01-24T16:01:12.731Z,3.13
2019-01-24T16:04:19.797Z,3.20
2019-01-24T16:07:09.297Z,3.60
2019-01-24T16:10:11.865Z,3.47
2019-01-24T16:13:06.153Z,3.57
2019-01-24T16:16:07.177Z,3.63
2019-01-24T16:19:00.851Z,3.30
2019-01-24T16:22:03.044Z,3.23
2019-01-24T16:24:57.098Z,3.30
2019-01-24T16:27:58.337Z,3.50
2019-01-24T16:30:52.977Z,3.20
2019-01-24T16:33:54.364Z,3.63
2019-01-24T16:36:48.765Z,3.40
2019-01-24T16:39:49.120Z,3.13
2019-01-24T16:42:43.431Z,3.23
2019-01-24T16:45:44.602Z,3.23
2019-01-24T16:48:45.219Z,3.40
2019-01-24T16:51:39.955Z,3.13
2019-01-24T16:54:33.713Z,3.33
2019-01-24T16:57:35.133Z,3.67
2019-01-24T17:00:47.677Z,3.30
2019-01-24T17:03:48.611Z,3.40
2019-01-24T17:06:42.089Z,3.30
2019-01-24T17:09:43.501Z,3.47
2019-01-24T17:12:40.883Z,3.00
2019-01-24T17:15:42.637Z,3.33
2019-01-24T17:18:36.107Z,3.50
2019-01-24T17:21:36.638Z,3.40
2019-01-24T17:24:31.053Z,3.30
2019-01-24T17:27:31.833Z,3.30
2019-01-24T17:30:29.795Z,3.30
2019-01-24T17:33:30.293Z,3.50
2019-01-24T17:36:24.002Z,3.33
2019-01-24T17:39:24.794Z,2.97
2019-01-24T17:42:19.271Z,3.43
2019-01-24T17:45:22.019Z,3.77
2019-01-24T17:48:17.991Z,3.87
2019-01-24T17:51:18.771Z,3.27
2019-01-24T17:54:16.116Z,3.90
2019-01-24T17:57:17.444Z,3.93
2019-01-24T18:00:14.211Z,4.60
2019-01-24T18:03:13.997Z,3.50
2019-01-24T18:06:08.374Z,3.50
2019-01-24T18:09:09.382Z,3.03
2019-01-24T18:12:03.837Z,3.27
2019-01-24T18:15:04.719Z,3.23
2019-01-24T18:17:59.023Z,3.07
2019-01-24T18:21:00.223Z,3.10
2019-01-24T18:23:54.826Z,2.90
2019-01-24T18:26:56.445Z,3.40
2019-01-24T18:29:53.798Z,4.00
2019-01-24T18:32:55.322Z,3.67
2019-01-24T18:35:49.689Z,3.60
2019-01-24T18:38:50.623Z,3.07
2019-01-24T18:41:44.420Z,3.77
2019-01-24T18:44:45.738Z,3.83
2019-01-24T18:47:39.447Z,3.60
2019-01-24T18:50:41.286Z,3.60
2019-01-24T18:53:41.588Z,3.60
2019-01-24T18:56:35.366Z,3.60
2019-01-24T18:59:31.307Z,3.90
2019-01-24T19:02:32.172Z,3.83
2019-01-24T19:05:32.536Z,3.60
2019-01-24T19:08:26.668Z,3.97
2019-01-24T19:11:22.417Z,3.97
2019-01-24T19:14:22.624Z,3.87
2019-01-24T19:17:16.642Z,3.30
2019-01-24T19:20:18.656Z,3.90
2019-01-24T19:23:18.681Z,4.27
2019-01-24T19:26:13.331Z,4.33
2019-01-24T19:29:07.449Z,4.10
2019-01-24T19:32:07.627Z,3.53
2019-01-24T19:35:01.856Z,3.87
2019-01-24T19:38:02.704Z,3.77
2019-01-24T19:40:56.908Z,3.90
2019-01-24T19:43:57.642Z,3.80
2019-01-24T19:46:57.985Z,4.10
2019-01-24T19:49:53.226Z,3.70
2019-01-24T19:52:46.909Z,4.00
2019-01-24T19:55:54.391Z,3.93
2019-01-24T19:59:01.381Z,4.13
2019-01-24T20:02:05.379Z,3.87
2019-01-24T20:04:59.716Z,4.07
2019-01-24T20:08:01.609Z,3.70
2019-01-24T20:10:55.107Z,4.33
2019-01-24T20:13:56.636Z,4.27
2019-01-24T20:16:50.173Z,3.83
2019-01-24T20:19:51.069Z,4.00
2019-01-24T20:22:45.015Z,4.40
2019-01-24T20:25:45.973Z,4.37
2019-01-24T20:28:39.831Z,4.43
2019-01-24T20:31:41.061Z,3.80
2019-01-24T20:34:56.711Z,4.70
2019-01-24T20:37:57.946Z,4.30
2019-01-24T20:40:52.000Z,4.20
2019-01-24T20:44:00.086Z,4.77
2019-01-24T20:47:07.148Z,4.97
2019-01-24T20:50:07.750Z,4.40
2019-01-24T20:53:02.296Z,4.70
2019-01-24T20:56:02.886Z,4.80
2019-01-24T20:58:56.309Z,4.27
2019-01-24T21:01:57.222Z,5.30
2019-01-24T21:04:51.108Z,4.93
2019-01-24T21:07:51.979Z,4.97
2019-01-24T21:10:46.989Z,4.63
2019-01-24T21:13:48.046Z,4.70
2019-01-24T21:16:42.557Z,4.57
2019-01-24T21:19:43.217Z,5.33
2019-01-24T21:22:36.740Z,4.57
2019-01-24T21:25:38.362Z,4.93
2019-01-24T21:28:35.559Z,4.87
2019-01-24T21:31:38.373Z,5.40
2019-01-24T21:34:33.407Z,5.43
2019-01-24T21:37:35.235Z,4.87
2019-01-24T21:40:29.872Z,5.10
2019-01-24T21:43:30.446Z,4.57
2019-01-24T21:46:25.276Z,4.90
2019-01-24T21:49:26.386Z,4.77
2019-01-24T21:52:21.170Z,4.80
2019-01-24T21:55:22.068Z,5.40
2019-01-24T21:58:26.511Z,4.70
2019-01-24T22:01:20.771Z,4.90
2019-01-24T22:04:28.222Z,5.67
2019-01-24T22:07:31.683Z,4.93
2019-01-24T22:10:27.274Z,5.03
2019-01-24T22:13:28.862Z,5.43
2019-01-24T22:16:22.444Z,4.90
2019-01-24T22:19:23.550Z,4.73
2019-01-24T22:22:17.231Z,4.83
2019-01-24T22:25:25.136Z,5.07
2019-01-24T22:28:19.424Z,4.93
2019-01-24T22:31:20.710Z,5.07
2019-01-24T22:34:15.415Z,5.10
2019-01-24T22:37:16.358Z,5.47
2019-01-24T22:40:11.604Z,4.97
2019-01-24T22:43:13.236Z,5.00
2019-01-24T22:46:07.754Z,5.03
2019-01-24T22:49:10.226Z,5.10
2019-01-24T22:52:03.864Z,5.53
2019-01-24T22:55:05.100Z,4.63
2019-01-24T22:57:58.554Z,5.43
2019-01-24T23:01:04.845Z,6.00
2019-01-24T23:03:59.083Z,5.10
2019-01-24T23:07:02.443Z,5.63
2019-01-24T23:09:57.176Z,4.90
2019-01-24T23:13:01.128Z,5.20
2019-01-24T23:15:55.598Z,5.43
2019-01-24T23:18:56.310Z,5.07
2019-01-24T23:21:51.021Z,5.03
2019-01-24T23:24:52.673Z,5.30
2019-01-24T23:27:48.282Z,5.53
2019-01-24T23:30:53.680Z,5.43
2019-01-24T23:33:50.054Z,5.10
2019-01-24T23:36:51.005Z,5.37
2019-01-24T23:39:51.727Z,5.47
2019-01-24T23:42:48.912Z,5.23
2019-01-24T23:45:46.096Z,5.30
2019-01-24T23:48:48.209Z,5.40
2019-01-24T23:51:42.375Z,5.40
2019-01-24T23:54:43.051Z,5.47
2019-01-24T23:57:37.838Z,5.60
